Time;durP1;ratioP1;P1;durP2;ratioP2;P2;SDS_P1;SDS_P2;PMS_P1;PMS_P2;Temp;Humidity;BMP_temperature;BMP_pressure;BME280_temperature;BME280_humidity;BME280_pressure;Samples;Min_cycle;Max_cycle;Signal;HPM_P1;HPM_P2
2023/06/18 00:18:34;;;;;;;20.02;6.03;;;;;;;16.62;100.00;99811.06;4989756;23;20150;-68
2023/06/18 00:21:00;;;;;;;16.48;6.35;;;;;;;16.82;100.00;99834.53;4965786;28;20039;-64
2023/06/18 00:23:25;;;;;;;13.63;5.63;;;;;;;16.37;100.00;99762.38;4953854;28;20118;-71
2023/06/18 00:25:51;;;;;;;18.25;6.22;;;;;;;16.85;100.00;99828.44;4957108;28;20465;-75
2023/06/18 00:28:16;;;;;;;22.20;6.45;;;;;;;16.77;100.00;99823.22;4972066;28;20047;-73
2023/06/18 00:30:41;;;;;;;18.20;6.85;;;;;;;16.66;100.00;99820.59;4972885;28;20587;-76
2023/06/18 00:33:07;;;;;;;20.67;5.85;;;;;;;16.60;100.00;99823.19;4974238;28;20038;-73
2023/06/18 00:35:32;;;;;;;17.80;5.97;;;;;;;16.60;100.00;99825.81;4974290;28;20405;-75
2023/06/18 00:37:59;;;;;;;15.48;6.10;;;;;;;16.67;100.00;99826.69;4974126;28;20114;-73
2023/06/18 00:40:24;;;;;;;17.50;6.05;;;;;;;16.58;100.00;99830.13;4974514;28;20098;-70
2023/06/18 00:42:52;;;;;;;18.88;5.57;;;;;;;16.65;100.00;99828.44;4974093;28;20477;-72
2023/06/18 00:45:18;;;;;;;16.15;5.28;;;;;;;16.61;100.00;99824.94;4974197;28;20034;-76
2023/06/18 00:47:44;;;;;;;22.58;5.85;;;;;;;16.60;100.00;99818.00;4973630;28;20046;-76
2023/06/18 00:50:15;;;;;;;11.45;5.50;;;;;;;16.63;100.00;99820.59;4973859;28;20038;-70
2023/06/18 00:52:47;;;;;;;22.20;6.07;;;;;;;16.77;100.00;99830.16;4973342;28;20503;-71
2023/06/18 00:55:16;;;;;;;15.18;5.38;;;;;;;16.81;100.00;99824.97;4973867;28;20046;-71
2023/06/18 00:57:49;;;;;;;16.23;6.20;;;;;;;16.91;100.00;99828.50;4974323;28;20086;-69
2023/06/18 01:00:16;;;;;;;20.58;5.65;;;;;;;16.86;100.00;99819.78;4974170;28;20035;-69
2023/06/18 01:02:45;;;;;;;14.27;6.10;;;;;;;16.91;100.00;99823.28;4973729;28;20037;-70
2023/06/18 01:05:13;;;;;;;16.52;5.32;;;;;;;16.79;100.00;99826.69;4973778;28;20062;-70
2023/06/18 01:07:40;;;;;;;15.98;5.75;;;;;;;16.84;100.00;99839.75;4974064;28;20031;-70
2023/06/18 01:10:07;;;;;;;13.85;6.05;;;;;;;16.67;100.00;99842.31;4953706;28;20065;-73
2023/06/18 01:12:33;;;;;;;21.13;6.18;;;;;;;16.72;100.00;99837.13;4965860;28;20054;-73
2023/06/18 01:14:59;;;;;;;18.88;5.72;;;;;;;16.83;100.00;99845.81;4973165;28;20035;-72
2023/06/18 01:17:33;;;;;;;20.90;5.95;;;;;;;16.92;100.00;99840.66;4973342;28;20145;-71
2023/06/18 01:20:10;;;;;;;16.10;5.38;;;;;;;17.06;100.00;99847.59;4973287;28;20023;-80
2023/06/18 01:22:53;;;;;;;19.02;5.45;;;;;;;17.13;100.00;99849.34;4973180;28;20064;-75
2023/06/18 01:25:19;;;;;;;16.25;6.30;;;;;;;17.21;100.00;99855.44;4972571;28;20034;-75
2023/06/18 01:27:47;;;;;;;18.63;5.60;;;;;;;17.28;100.00;99858.91;4955453;28;20460;-75
2023/06/18 01:30:13;;;;;;;21.25;5.35;;;;;;;17.29;100.00;99858.03;4954133;28;20040;-75
2023/06/18 01:32:40;;;;;;;24.52;5.55;;;;;;;17.38;100.00;99865.00;4955633;28;20061;-74
2023/06/18 01:35:07;;;;;;;16.20;4.97;;;;;;;17.36;100.00;99853.69;4972757;28;20452;-74
2023/06/18 01:37:54;;;;;;;11.50;5.00;;;;;;;17.40;100.00;99858.03;4971962;28;20026;-74
2023/06/18 01:40:28;;;;;;;14.93;5.03;;;;;;;17.32;100.00;99845.00;4972782;28;20053;-74
2023/06/18 01:43:13;;;;;;;24.98;4.93;;;;;;;17.48;100.00;99866.72;4971898;28;20031;-74
2023/06/18 01:46:03;;;;;;;19.48;5.10;;;;;;;17.50;100.00;99870.22;4972964;28;20053;-74
2023/06/18 01:48:34;;;;;;;21.25;5.35;;;;;;;17.48;100.00;99878.91;4931973;29;20183;-74
2023/06/18 01:51:01;;;;;;;21.58;5.50;;;;;;;17.50;100.00;99871.97;4932117;29;20039;-74
2023/06/18 01:53:28;;;;;;;14.45;4.53;;;;;;;17.52;100.00;99883.25;4931814;29;20044;-74
2023/06/18 01:55:59;;;;;;;18.08;4.80;;;;;;;17.41;100.00;99881.53;4932016;29;20035;-74
2023/06/18 01:58:28;;;;;;;14.73;4.20;;;;;;;17.10;100.00;99870.22;4912638;29;20466;-74
2023/06/18 02:00:53;;;;;;;18.90;4.73;;;;;;;16.92;100.00;99858.03;4912122;29;20458;-71
2023/06/18 02:03:19;;;;;;;16.98;4.38;;;;;;;16.69;100.00;99882.28;4912116;29;20091;-72
2023/06/18 02:05:46;;;;;;;19.40;4.43;;;;;;;16.47;100.00;99883.97;4911257;29;20083;-73
2023/06/18 02:08:11;;;;;;;22.67;5.38;;;;;;;16.61;100.00;99886.59;4912300;29;20156;-74
2023/06/18 02:10:36;;;;;;;18.60;4.97;;;;;;;16.60;100.00;99885.75;4912652;29;20610;-74
2023/06/18 02:13:02;;;;;;;14.55;4.63;;;;;;;16.63;100.00;99893.56;4912413;29;20744;-74
2023/06/18 02:15:27;;;;;;;15.43;4.90;;;;;;;16.51;100.00;99862.28;4912037;29;20062;-73
2023/06/18 02:17:53;;;;;;;21.17;4.97;;;;;;;16.70;100.00;99899.69;4912125;29;20082;-73
2023/06/18 02:20:18;;;;;;;20.45;4.57;;;;;;;16.82;100.00;99906.63;4912205;29;20494;-72
2023/06/18 02:22:44;;;;;;;16.20;4.80;;;;;;;16.68;100.00;99861.44;4911986;29;20095;-72
2023/06/18 02:25:10;;;;;;;14.93;4.60;;;;;;;16.77;100.00;99903.16;4922391;29;20040;-73
2023/06/18 02:27:36;;;;;;;12.35;4.05;;;;;;;16.66;100.00;99904.00;4933446;29;20032;-73
2023/06/18 02:30:24;;;;;;;17.20;4.90;;;;;;;16.52;100.00;99891.81;4933021;29;20031;-74
2023/06/18 02:32:50;;;;;;;11.93;4.13;;;;;;;16.47;100.00;99897.88;4936202;29;20129;-74
2023/06/18 02:35:16;;;;;;;14.07;4.00;;;;;;;16.26;100.00;99867.41;4949739;29;20525;-74
2023/06/18 02:37:42;;;;;;;22.08;4.93;;;;;;;16.60;100.00;99900.53;4934086;29;20035;-74
2023/06/18 02:40:09;;;;;;;14.32;3.97;;;;;;;16.60;100.00;99901.38;4950451;29;20130;-74
2023/06/18 02:42:35;;;;;;;18.08;4.53;;;;;;;16.67;100.00;99907.47;4949867;29;20094;-74
2023/06/18 02:45:02;;;;;;;14.02;4.20;;;;;;;16.59;100.00;99917.03;4950135;29;20039;-74
2023/06/18 02:47:27;;;;;;;16.35;4.40;;;;;;;16.56;100.00;99919.59;4950316;29;20131;-74
2023/06/18 02:49:53;;;;;;;18.80;5.22;;;;;;;16.69;100.00;99915.31;4950348;29;20218;-74
2023/06/18 02:52:18;;;;;;;20.63;4.85;;;;;;;16.83;100.00;99924.03;4950173;29;20047;-74
2023/06/18 02:54:44;;;;;;;15.55;4.55;;;;;;;16.92;100.00;99918.88;4950027;29;20541;-74
2023/06/18 02:57:10;;;;;;;28.55;5.22;;;;;;;17.06;100.00;99925.84;4949882;29;20052;-75
2023/06/18 02:59:35;;;;;;;14.98;4.47;;;;;;;17.08;100.00;99924.97;4949932;29;20123;-75
2023/06/18 03:02:04;;;;;;;11.60;3.90;;;;;;;17.14;100.00;99924.13;4949919;29;20050;-74
2023/06/18 03:04:29;;;;;;;19.10;4.78;;;;;;;17.04;100.00;99901.50;4951715;29;20457;-74
2023/06/18 03:06:58;;;;;;;14.73;4.10;;;;;;;17.24;100.00;99938.91;4952300;28;20118;-74
2023/06/18 03:09:23;;;;;;;23.70;4.03;;;;;;;17.21;100.00;99931.09;4952305;28;20027;-74
2023/06/18 03:11:49;;;;;;;19.30;4.82;;;;;;;17.29;100.00;99938.91;4952071;28;20110;-75
2023/06/18 03:14:14;;;;;;;22.17;4.93;;;;;;;17.22;100.00;99943.28;4952501;28;20065;-74
2023/06/18 03:16:40;;;;;;;22.30;4.95;;;;;;;17.21;100.00;99946.75;4955412;28;20063;-74
2023/06/18 03:19:05;;;;;;;13.30;4.63;;;;;;;17.18;100.00;99946.72;4953995;28;20097;-74
2023/06/18 03:21:31;;;;;;;11.27;4.13;;;;;;;17.15;100.00;99944.13;4971279;28;20026;-74
2023/06/18 03:23:56;;;;;;;17.13;4.93;;;;;;;17.02;100.00;99922.34;4971297;28;20031;-74
2023/06/18 03:26:22;;;;;;;14.57;4.07;;;;;;;17.22;100.00;99958.94;4971320;28;20027;-75
2023/06/18 03:28:47;;;;;;;12.60;4.53;;;;;;;17.21;100.00;99951.97;4954244;28;20093;-74
2023/06/18 03:31:13;;;;;;;19.60;5.07;;;;;;;17.29;100.00;99951.97;4970181;28;20203;-74
2023/06/18 03:33:38;;;;;;;20.40;4.75;;;;;;;17.31;100.00;99942.41;4970999;28;20095;-75
2023/06/18 03:36:05;;;;;;;16.38;5.05;;;;;;;17.46;100.00;99959.81;4971261;28;20077;-74
2023/06/18 03:38:31;;;;;;;20.63;5.40;;;;;;;17.28;100.00;99914.59;4971382;28;20027;-74
2023/06/18 03:40:56;;;;;;;14.00;4.95;;;;;;;17.58;100.00;99961.53;4970979;28;20031;-75
2023/06/18 03:43:22;;;;;;;13.07;4.30;;;;;;;17.56;100.00;99965.91;4971391;28;20117;-74
2023/06/18 03:45:47;;;;;;;17.25;5.03;;;;;;;17.60;100.00;99957.19;4954108;28;20065;-74
2023/06/18 03:48:13;;;;;;;19.23;5.40;;;;;;;17.68;100.00;99965.03;4971209;28;20489;-74
2023/06/18 03:50:38;;;;;;;11.60;4.35;;;;;;;17.70;100.00;99966.75;4971376;28;20492;-74
2023/06/18 03:53:03;;;;;;;16.90;4.35;;;;;;;17.77;100.00;99975.47;4971131;28;20027;-74
2023/06/18 03:55:29;;;;;;;21.70;5.68;;;;;;;17.74;100.00;99965.03;4970987;28;20031;-75
2023/06/18 03:57:54;;;;;;;12.27;4.68;;;;;;;17.68;100.00;99963.28;4970962;28;20042;-74
2023/06/18 04:00:20;;;;;;;16.90;5.07;;;;;;;17.61;100.00;99966.78;4968778;28;20034;-75
2023/06/18 04:02:46;;;;;;;15.85;5.03;;;;;;;17.68;100.00;99965.03;4970493;28;20042;-76
2023/06/18 04:05:12;;;;;;;16.52;5.35;;;;;;;17.60;100.00;99949.38;4970284;28;20492;-76
2023/06/18 04:07:38;;;;;;;15.40;5.00;;;;;;;17.70;100.00;99963.28;4970648;28;20034;-76
2023/06/18 04:10:03;;;;;;;16.23;5.35;;;;;;;17.80;100.00;99980.69;4970592;28;20521;-75
2023/06/18 04:12:29;;;;;;;16.67;4.90;;;;;;;17.83;100.00;99972.88;4970691;28;20035;-75
2023/06/18 04:14:54;;;;;;;12.73;4.82;;;;;;;17.93;100.00;99984.16;4970895;28;20031;-76
2023/06/18 04:17:20;;;;;;;13.50;4.38;;;;;;;18.01;100.00;99992.88;4970740;28;20129;-76
2023/06/18 04:19:45;;;;;;;15.38;5.05;;;;;;;18.02;100.00;99985.91;4970436;28;20109;-75
2023/06/18 04:22:10;;;;;;;18.67;5.18;;;;;;;18.00;100.00;99983.31;4968724;28;20043;-75
2023/06/18 04:24:36;;;;;;;13.05;4.93;;;;;;;17.98;100.00;99984.19;4970923;28;20031;-75
2023/06/18 04:27:01;;;;;;;12.15;4.63;;;;;;;18.09;100.00;99996.38;4969243;28;20026;-75
2023/06/18 04:29:26;;;;;;;16.90;5.60;;;;;;;18.15;100.00;99994.63;4955580;28;20043;-75
2023/06/18 04:31:52;;;;;;;11.60;5.20;;;;;;;18.13;100.00;99983.28;4973820;28;20077;-75
2023/06/18 04:34:17;;;;;;;17.02;5.03;;;;;;;18.22;100.00;99980.69;4974246;28;20102;-74
2023/06/18 04:36:43;;;;;;;21.48;5.75;;;;;;;18.30;100.00;99991.97;4973913;28;20452;-75
2023/06/18 04:39:09;;;;;;;18.40;5.70;;;;;;;18.26;100.00;100000.69;4973945;28;20464;-74
2023/06/18 04:41:34;;;;;;;17.35;5.53;;;;;;;18.17;100.00;99988.50;4973925;28;20022;-74
2023/06/18 04:43:59;;;;;;;22.55;6.35;;;;;;;18.23;100.00;99985.88;4973995;28;20035;-74
2023/06/18 04:46:25;;;;;;;11.52;5.30;;;;;;;18.16;100.00;99986.78;4973720;28;20054;-74
2023/06/18 04:48:50;;;;;;;12.25;5.20;;;;;;;18.18;100.00;100003.31;4963335;28;20038;-74
2023/06/18 04:51:16;;;;;;;18.85;6.03;;;;;;;18.01;100.00;99992.88;4974404;28;20031;-74
2023/06/18 04:53:41;;;;;;;15.00;5.82;;;;;;;18.05;100.00;99985.91;4969398;28;20023;-74
2023/06/18 04:56:08;;;;;;;11.82;5.50;;;;;;;17.82;100.00;99981.56;4952878;29;20383;-75
2023/06/18 04:58:36;;;;;;;13.57;6.03;;;;;;;17.83;100.00;99988.53;4954439;28;20062;-74
2023/06/18 05:01:02;;;;;;;11.18;6.07;;;;;;;17.77;100.00;99992.00;4954527;29;20114;-75
2023/06/18 05:03:28;;;;;;;12.68;6.50;;;;;;;17.74;100.00;99985.91;4953995;29;20063;-74
2023/06/18 05:05:53;;;;;;;10.90;5.97;;;;;;;17.98;100.00;100000.75;4954258;29;20123;-74
2023/06/18 05:08:19;;;;;;;13.10;6.53;;;;;;;18.06;100.00;100001.59;4954628;29;20477;-74
2023/06/18 05:10:44;;;;;;;11.23;6.25;;;;;;;18.11;100.00;100004.19;4954143;29;20118;-74
2023/06/18 05:13:11;;;;;;;13.30;6.03;;;;;;;18.22;100.00;100006.81;4954088;29;20110;-74
2023/06/18 05:15:36;;;;;;;11.27;6.10;;;;;;;18.21;100.00;100005.91;4954657;29;20034;-74
2023/06/18 05:18:02;;;;;;;11.18;6.00;;;;;;;18.22;100.00;100004.19;4953661;29;20047;-74
2023/06/18 05:20:27;;;;;;;6.55;5.45;;;;;;;18.13;100.00;99999.84;4953935;29;20114;-75
2023/06/18 05:22:52;;;;;;;12.60;5.95;;;;;;;18.22;100.00;99999.81;4954012;29;20050;-74
2023/06/18 05:25:18;;;;;;;11.45;5.93;;;;;;;18.06;100.00;99967.63;4953433;29;20429;-74
2023/06/18 05:27:43;;;;;;;12.60;6.35;;;;;;;18.37;100.00;100011.97;4953690;29;20019;-74
2023/06/18 05:30:09;;;;;;;8.95;5.97;;;;;;;18.43;100.00;99998.91;4953934;29;20062;-74
2023/06/18 05:32:34;;;;;;;11.63;6.38;;;;;;;18.70;100.00;100020.59;4953721;29;20039;-74
2023/06/18 05:34:59;;;;;;;15.30;6.57;;;;;;;18.77;100.00;100021.44;4953797;28;20031;-74
2023/06/18 05:37:25;;;;;;;11.73;6.43;;;;;;;18.83;100.00;100025.75;4953576;29;20114;-74
2023/06/18 05:39:54;;;;;;;9.88;5.75;;;;;;;18.88;100.00;100024.03;4951788;28;20517;-74
2023/06/18 05:42:19;;;;;;;13.27;7.13;;;;;;;18.98;100.00;100030.97;4953552;29;20031;-74
2023/06/18 05:44:45;;;;;;;10.85;5.90;;;;;;;19.04;100.00;100038.81;4953878;29;20516;-73
2023/06/18 05:47:10;;;;;;;10.75;6.20;;;;;;;18.84;100.00;99994.41;4953546;29;20453;-74
2023/06/18 05:49:36;;;;;;;9.32;5.60;;;;;;;19.05;100.00;100034.44;4953293;29;20038;-74
2023/06/18 05:52:01;;;;;;;12.38;6.43;;;;;;;19.11;100.00;100020.47;4953377;29;20090;-76
2023/06/18 05:54:27;;;;;;;8.23;6.00;;;;;;;19.19;100.00;100019.53;4954055;29;20062;-74
2023/06/18 05:57:13;;;;;;;11.10;5.20;;;;;;;19.34;100.00;100033.38;4931665;29;20461;-75
2023/06/18 05:59:39;;;;;;;9.10;5.43;;;;;;;19.41;100.00;100045.56;4931677;29;20054;-75
2023/06/18 06:02:05;;;;;;;8.32;5.57;;;;;;;19.50;100.00;100036.78;4931467;29;20409;-74
2023/06/18 06:04:30;;;;;;;9.77;5.13;;;;;;;19.48;100.00;100036.81;4931594;29;20395;-75
2023/06/18 06:06:55;;;;;;;9.30;5.40;;;;;;;19.56;100.00;100042.88;4931248;29;20486;-74
2023/06/18 06:09:21;;;;;;;5.60;4.32;;;;;;;19.37;100.00;100007.22;4931505;29;20682;-75
2023/06/18 06:11:46;;;;;;;5.70;3.63;;;;;;;19.66;100.00;100050.63;4936650;29;20039;-75
2023/06/18 06:14:12;;;;;;;10.65;4.53;;;;;;;19.47;100.00;100023.72;4950500;29;20039;-75
2023/06/18 06:16:37;;;;;;;7.80;5.10;;;;;;;19.64;100.00;100053.28;4950247;29;20089;-75
2023/06/18 06:19:03;;;;;;;8.85;5.28;;;;;;;19.52;100.00;100014.94;4950527;29;20126;-74
2023/06/18 06:21:29;;;;;;;6.20;5.10;;;;;;;19.82;100.00;100049.63;4950269;29;20039;-75
2023/06/18 06:23:56;;;;;;;8.82;5.53;;;;;;;19.89;100.00;100058.38;4950158;29;20039;-73
2023/06/18 06:26:22;;;;;;;6.20;5.55;;;;;;;19.98;100.00;100060.03;4934288;29;20028;-74
2023/06/18 06:28:47;;;;;;;8.07;5.32;;;;;;;19.95;100.00;100047.84;4966343;28;20046;-74
2023/06/18 06:31:12;;;;;;;10.05;5.50;;;;;;;19.88;100.00;100030.44;4972019;28;20118;-75
2023/06/18 06:33:38;;;;;;;8.48;6.05;;;;;;;20.11;100.00;100055.56;4972230;28;20026;-74
2023/06/18 06:36:04;;;;;;;6.82;5.40;;;;;;;19.86;100.00;100019.09;4971769;28;20428;-75
2023/06/18 06:38:49;;;;;;;8.75;5.45;;;;;;;20.22;100.00;100063.31;4971982;28;20030;-75
2023/06/18 06:41:14;;;;;;;7.75;5.18;;;;;;;20.19;100.00;100066.84;4930823;29;20425;-75
2023/06/18 06:43:40;;;;;;;6.45;5.70;;;;;;;20.26;100.00;100052.81;4930995;29;20044;-75
2023/06/18 06:46:05;;;;;;;10.13;4.97;;;;;;;20.32;100.00;100070.22;4930889;29;20519;-75
2023/06/18 06:48:31;;;;;;;7.30;4.72;;;;;;;20.35;100.00;100072.81;4914827;29;20533;-75
2023/06/18 06:50:57;;;;;;;5.55;4.20;;;;;;;20.20;100.00;100051.09;4930222;29;20051;-74
2023/06/18 06:53:22;;;;;;;7.18;4.88;;;;;;;20.34;100.00;100058.81;4930914;29;20031;-74
2023/06/18 06:55:48;;;;;;;9.80;5.60;;;;;;;20.47;100.00;100063.94;4930900;29;20474;-75
2023/06/18 06:58:13;;;;;;;8.25;5.78;;;;;;;20.52;100.00;100068.28;4930705;29;20032;-75
2023/06/18 07:00:39;;;;;;;7.88;5.57;;;;;;;20.58;100.00;100053.34;4930567;29;20178;-75
2023/06/18 07:03:05;;;;;;;8.77;5.63;;;;;;;20.67;100.00;100062.00;4930261;29;20411;-75
2023/06/18 07:05:30;;;;;;;8.27;5.55;;;;;;;20.66;100.00;100051.50;4930591;29;20035;-75
2023/06/18 07:07:56;;;;;;;8.57;5.20;;;;;;;20.78;100.00;100061.03;4930742;29;20043;-75
2023/06/18 07:10:21;;;;;;;9.10;5.43;;;;;;;20.85;100.00;100067.94;4930642;29;20118;-75
2023/06/18 07:12:47;;;;;;;6.65;5.38;;;;;;;20.87;100.00;100057.41;4943236;28;20035;-75
2023/06/18 07:15:12;;;;;;;6.55;4.80;;;;;;;20.84;100.00;100058.34;4971424;28;20057;-75
2023/06/18 07:17:38;;;;;;;6.10;5.30;;;;;;;21.10;100.00;100067.66;4970137;28;20497;-75
2023/06/18 07:20:03;;;;;;;6.55;5.13;;;;;;;21.13;100.00;100062.34;4971326;28;20081;-75
2023/06/18 07:22:29;;;;;;;6.15;5.10;;;;;;;21.20;100.00;100078.88;4971034;28;20038;-75
2023/06/18 07:24:56;;;;;;;7.72;5.00;;;;;;;21.31;100.00;100085.72;4971647;28;20023;-74
2023/06/18 07:27:22;;;;;;;6.75;4.70;;;;;;;21.40;100.00;100081.25;4971800;28;20031;-76
2023/06/18 07:29:47;;;;;;;9.80;5.15;;;;;;;21.41;100.00;100075.97;4971187;28;20030;-75
2023/06/18 07:32:13;;;;;;;6.22;4.47;;;;;;;21.50;100.00;100069.72;4970972;28;20089;-74
2023/06/18 07:34:38;;;;;;;8.23;5.03;;;;;;;21.56;100.00;100068.78;4971628;28;20027;-74
2023/06/18 07:37:04;;;;;;;8.63;5.32;;;;;;;21.48;100.00;100060.97;4970968;28;20412;-76
2023/06/18 07:39:29;;;;;;;8.52;4.70;;;;;;;21.68;100.00;100081.72;4970923;28;20027;-74
2023/06/18 07:41:55;;;;;;;4.82;4.13;;;;;;;21.74;100.00;100075.53;4971401;28;20041;-75
2023/06/18 07:44:20;;;;;;;6.82;4.93;;;;;;;21.83;100.00;100085.88;4971323;28;20035;-75
2023/06/18 07:46:46;;;;;;;6.30;4.63;;;;;;;21.83;100.00;100079.75;4970824;28;20042;-76
2023/06/18 07:49:12;;;;;;;6.25;4.43;;;;;;;21.82;100.00;100081.53;4971141;28;20027;-75
2023/06/18 07:51:38;;;;;;;9.50;4.80;;;;;;;21.77;100.00;100078.97;4971086;28;20085;-76
2023/06/18 07:54:05;;;;;;;6.15;4.70;;;;;;;21.70;100.00;100069.44;4971068;28;20034;-75
2023/06/18 07:56:31;;;;;;;5.60;4.93;;;;;;;21.87;100.00;100065.66;4970981;28;20054;-75
2023/06/18 07:58:56;;;;;;;7.65;4.68;;;;;;;21.94;100.00;100078.72;4969837;28;20532;-74
2023/06/18 08:01:21;;;;;;;7.78;4.85;;;;;;;21.77;100.00;100055.31;4970923;28;20090;-75
2023/06/18 08:03:47;;;;;;;6.75;4.72;;;;;;;21.85;100.00;100078.84;4974923;28;20033;-76
2023/06/18 08:06:12;;;;;;;7.05;4.75;;;;;;;21.89;100.00;100082.28;4974805;28;20492;-75
2023/06/18 08:08:37;;;;;;;8.55;4.47;;;;;;;22.02;100.00;100086.47;4974584;28;20030;-77
2023/06/18 08:11:03;;;;;;;8.55;4.35;;;;;;;22.15;100.00;100076.59;4974574;28;20106;-75
2023/06/18 08:13:29;;;;;;;7.97;4.32;;;;;;;22.30;100.00;100078.09;4974688;28;20054;-75
2023/06/18 08:15:55;;;;;;;6.78;4.38;;;;;;;22.45;100.00;100091.03;4974360;28;20035;-76
2023/06/18 08:18:20;;;;;;;9.15;4.95;;;;;;;22.57;100.00;100094.31;4974793;28;20591;-75
2023/06/18 08:20:46;;;;;;;7.28;4.85;;;;;;;22.57;100.00;100099.56;4973916;28;20412;-75
2023/06/18 08:23:11;;;;;;;5.80;4.35;;;;;;;22.53;100.00;100088.25;4974178;28;20051;-76
2023/06/18 08:25:36;;;;;;;8.98;4.40;;;;;;;22.65;100.00;100095.03;4973212;28;20035;-76
2023/06/18 08:28:02;;;;;;;7.60;4.18;;;;;;;22.78;100.00;100087.78;4961400;28;20035;-75
2023/06/18 08:30:27;;;;;;;9.40;4.78;;;;;;;22.78;100.00;100078.09;4953761;29;20497;-76
2023/06/18 08:32:56;;;;;;;7.05;3.95;;;;;;;23.01;100.00;100091.72;4955076;28;20035;-75
2023/06/18 08:35:22;;;;;;;6.88;4.32;;;;;;;22.98;100.00;100103.16;4954783;28;20105;-75
2023/06/18 08:37:47;;;;;;;5.72;3.92;;;;;;;23.10;100.00;100105.56;4973056;28;20038;-76
2023/06/18 08:40:14;;;;;;;6.40;4.00;;;;;;;22.90;100.00;100099.81;4973791;28;20030;-80
2023/06/18 08:42:39;;;;;;;6.20;4.00;;;;;;;22.85;100.00;100106.94;4973752;28;20109;-76
2023/06/18 08:45:06;;;;;;;7.72;4.55;;;;;;;22.77;100.00;100102.69;4973032;28;20114;-78
2023/06/18 08:47:33;;;;;;;9.48;4.57;;;;;;;22.93;100.00;100110.28;4966528;28;20030;-79
2023/06/18 08:50:01;;;;;;;10.13;6.00;;;;;;;23.04;100.00;100103.03;4967708;28;20038;-79
2023/06/18 08:52:30;;;;;;;19.17;17.33;;;;;;;23.26;100.00;100102.63;4959861;28;20385;-78
2023/06/18 08:55:01;;;;;;;166.02;150.13;;;;;;;23.12;100.00;100059.91;4945908;29;20032;-78
2023/06/18 08:57:42;;;;;;;103.93;93.50;;;;;;;23.35;100.00;100101.53;4960458;28;20029;-78
2023/06/18 09:00:08;;;;;;;153.02;127.13;;;;;;;23.46;100.00;100094.28;4956014;28;20508;-77
2023/06/18 09:02:35;;;;;;;8.13;4.70;;;;;;;23.33;100.00;100063.81;4955973;28;20062;-79
2023/06/18 09:05:04;;;;;;;10.75;4.18;;;;;;;23.57;100.00;100078.22;4955132;28;20039;-78
2023/06/18 09:07:30;;;;;;;6.32;3.85;;;;;;;23.41;100.00;100049.63;4955844;28;20034;-74
2023/06/18 09:09:56;;;;;;;8.38;4.40;;;;;;;23.92;100.00;100084.47;4972988;28;20031;-74
2023/06/18 09:12:21;;;;;;;7.40;4.38;;;;;;;23.93;100.00;100080.91;4954706;28;20449;-76
2023/06/18 09:14:47;;;;;;;5.95;4.03;;;;;;;24.11;100.00;100081.38;4935966;29;20049;-75
2023/06/18 09:17:12;;;;;;;7.18;4.10;;;;;;;24.29;100.00;100086.16;4955080;28;20047;-76
2023/06/18 09:19:38;;;;;;;7.78;4.10;;;;;;;24.56;100.00;100086.31;4958464;28;20631;-74
2023/06/18 09:22:15;;;;;;;6.90;4.38;;;;;;;24.66;100.00;100086.97;4961680;28;20513;-76
2023/06/18 09:24:41;;;;;;;7.25;4.30;;;;;;;24.83;100.00;100092.66;4953445;28;20035;-76
2023/06/18 09:27:07;;;;;;;5.45;4.03;;;;;;;24.91;100.00;100089.81;4953314;28;20038;-77
2023/06/18 09:29:34;;;;;;;6.45;3.58;;;;;;;24.67;100.00;100089.59;4953222;28;20019;-77
2023/06/18 09:32:10;;;;;;;6.60;3.70;;;;;;;24.69;100.00;100090.41;4953144;28;20059;-77
2023/06/18 09:34:37;;;;;;;5.32;3.75;;;;;;;24.48;100.00;100077.78;4953309;28;20051;-73
2023/06/18 09:37:04;;;;;;;6.30;3.60;;;;;;;24.59;100.00;100078.34;4953686;28;20074;-74
2023/06/18 09:39:31;;;;;;;6.40;3.80;;;;;;;24.66;100.00;100081.69;4936663;28;20097;-74
2023/06/18 09:42:06;;;;;;;6.88;3.65;;;;;;;24.64;100.00;100079.06;4953479;28;20054;-73
2023/06/18 09:44:32;;;;;;;8.10;4.35;;;;;;;24.66;100.00;100085.22;4936143;28;20042;-73
2023/06/18 09:46:58;;;;;;;6.45;4.18;;;;;;;24.62;100.00;100074.75;4953210;28;20485;-74
2023/06/18 09:49:26;;;;;;;6.82;3.75;;;;;;;24.56;100.00;100086.31;4967529;28;20085;-74
2023/06/18 09:51:52;;;;;;;4.43;3.50;;;;;;;24.62;100.00;100069.47;4971963;28;20038;-75
2023/06/18 09:54:19;;;;;;;5.10;3.70;;;;;;;24.64;100.00;100071.16;4965934;28;20106;-75
2023/06/18 09:56:59;;;;;;;6.40;3.58;;;;;;;24.66;100.00;100085.22;4935054;29;20517;-74
2023/06/18 09:59:26;;;;;;;9.15;3.50;;;;;;;24.44;100.00;100081.41;4957234;28;20529;-74
2023/06/18 10:01:52;;;;;;;6.43;3.78;;;;;;;24.34;100.00;100081.63;4953290;28;20031;-74
2023/06/18 10:04:17;;;;;;;7.03;4.00;;;;;;;24.29;100.00;100059.78;4959892;28;20042;-75
2023/06/18 10:06:51;;;;;;;9.00;3.58;;;;;;;24.62;100.00;100051.84;4956014;28;20101;-75
2023/06/18 10:09:20;;;;;;;6.68;3.50;;;;;;;25.08;99.64;100070.81;4952884;28;20035;-75
2023/06/18 10:11:50;;;;;;;6.60;3.55;;;;;;;25.16;100.00;100057.38;4952961;28;20031;-73
2023/06/18 10:14:21;;;;;;;8.40;3.75;;;;;;;25.42;96.59;100061.03;4952624;28;20035;-75
2023/06/18 10:16:51;;;;;;;9.85;3.80;;;;;;;25.50;94.72;100048.47;4952562;28;20097;-74
2023/06/18 10:19:36;;;;;;;7.15;3.63;;;;;;;25.49;97.30;100047.56;4935220;29;20058;-74
2023/06/18 10:22:03;;;;;;;6.95;3.60;;;;;;;25.13;100.00;100000.22;4952266;28;20041;-73
2023/06/18 10:24:41;;;;;;;8.98;3.72;;;;;;;25.09;100.00;100030.28;4952433;28;20023;-74
2023/06/18 10:27:07;;;;;;;6.13;3.03;;;;;;;25.03;100.00;100047.19;4951758;28;20034;-74
2023/06/18 10:29:33;;;;;;;7.13;2.97;;;;;;;25.11;100.00;100046.97;4951968;28;20039;-74
2023/06/18 10:32:03;;;;;;;9.38;3.65;;;;;;;25.47;99.45;100030.03;4952579;28;20031;-74
2023/06/18 10:34:30;;;;;;;10.35;3.47;;;;;;;25.74;98.91;100022.13;4952513;28;20034;-76
2023/06/18 10:36:57;;;;;;;4.68;3.13;;;;;;;25.86;97.62;100003.22;4952187;28;20054;-75
2023/06/18 10:39:23;;;;;;;6.60;2.80;;;;;;;25.93;97.44;100019.72;4952162;28;20028;-74
2023/06/18 10:41:51;;;;;;;5.63;3.15;;;;;;;25.95;98.71;99999.41;4952044;28;20088;-73
2023/06/18 10:44:33;;;;;;;7.15;2.92;;;;;;;25.71;100.00;100004.59;4952475;28;20107;-74
2023/06/18 10:47:22;;;;;;;7.18;3.30;;;;;;;25.68;100.00;100034.66;4952394;28;20126;-74
2023/06/18 10:50:07;;;;;;;5.68;3.00;;;;;;;25.56;100.00;100020.94;4956514;28;20034;-74
2023/06/18 10:52:37;;;;;;;5.45;2.97;;;;;;;25.97;100.00;100024.00;4910955;29;20060;-76
2023/06/18 10:55:13;;;;;;;5.18;2.88;;;;;;;26.22;99.05;100017.88;4917848;29;20494;-74
2023/06/18 10:57:45;;;;;;;7.13;2.80;;;;;;;25.86;100.00;99967.97;4916665;29;20052;-73
2023/06/18 11:00:18;;;;;;;6.72;3.15;;;;;;;26.24;99.21;100022.19;4930242;29;20039;-74
2023/06/18 11:02:45;;;;;;;9.23;2.67;;;;;;;25.86;95.00;99999.69;4923793;29;20036;-77
2023/06/18 11:05:16;;;;;;;7.60;2.92;;;;;;;25.89;95.98;100003.09;4929884;29;20131;-76
2023/06/18 11:07:41;;;;;;;9.00;3.13;;;;;;;25.55;96.44;100025.38;4930305;29;20479;-75
2023/06/18 11:10:08;;;;;;;4.68;2.72;;;;;;;24.99;99.78;100005.06;4929630;29;20090;-75
2023/06/18 11:12:38;;;;;;;5.10;2.90;;;;;;;25.01;100.00;100006.75;4918375;29;20102;-78
2023/06/18 11:15:07;;;;;;;5.43;2.83;;;;;;;24.67;100.00;99996.34;4914177;29;20036;-77
2023/06/18 11:17:33;;;;;;;6.82;3.28;;;;;;;24.62;100.00;99988.50;4904001;29;20119;-74
2023/06/18 11:20:00;;;;;;;5.53;3.15;;;;;;;24.64;100.00;100012.25;4911080;29;20083;-76
2023/06/18 11:22:28;;;;;;;15.57;4.95;;;;;;;24.63;100.00;100016.63;4910665;29;20056;-75
2023/06/18 11:24:56;;;;;;;11.73;4.18;;;;;;;24.12;100.00;100017.16;4916703;29;20059;-73
2023/06/18 11:27:24;;;;;;;6.72;3.35;;;;;;;23.73;100.00;99983.84;4919581;29;20228;-76
2023/06/18 11:29:50;;;;;;;6.53;3.50;;;;;;;23.73;100.00;100024.25;4945935;28;20066;-74
2023/06/18 11:32:16;;;;;;;4.88;3.42;;;;;;;23.68;100.00;100014.72;4951421;28;20473;-73
2023/06/18 11:34:42;;;;;;;5.78;3.80;;;;;;;23.69;100.00;100009.41;4954680;28;20042;-74